sensor_id;sensor_type;location;lat;lon;timestamp;temperature;humidity
10123;DHT22;5101;49.038;8.710;2023-07-31T00:00:02;18.20;91.90
10123;DHT22;5101;49.038;8.710;2023-07-31T00:02:27;18.20;92.00
10123;DHT22;5101;49.038;8.710;2023-07-31T00:04:53;18.20;92.30
10123;DHT22;5101;49.038;8.710;2023-07-31T00:07:18;18.20;92.70
10123;DHT22;5101;49.038;8.710;2023-07-31T00:09:44;18.20;92.40
10123;DHT22;5101;49.038;8.710;2023-07-31T00:12:09;18.20;92.40
10123;DHT22;5101;49.038;8.710;2023-07-31T00:14:35;18.20;92.60
10123;DHT22;5101;49.038;8.710;2023-07-31T00:17:01;18.10;92.70
10123;DHT22;5101;49.038;8.710;2023-07-31T00:19:26;18.10;92.80
10123;DHT22;5101;49.038;8.710;2023-07-31T00:21:52;18.10;92.90
10123;DHT22;5101;49.038;8.710;2023-07-31T00:24:17;18.00;93.00
10123;DHT22;5101;49.038;8.710;2023-07-31T00:26:43;18.00;93.00
10123;DHT22;5101;49.038;8.710;2023-07-31T00:29:08;17.90;93.00
10123;DHT22;5101;49.038;8.710;2023-07-31T00:31:34;17.90;93.10
10123;DHT22;5101;49.038;8.710;2023-07-31T00:33:59;17.90;93.20
10123;DHT22;5101;49.038;8.710;2023-07-31T00:36:25;17.90;93.40
10123;DHT22;5101;49.038;8.710;2023-07-31T00:38:50;17.90;93.60
10123;DHT22;5101;49.038;8.710;2023-07-31T00:41:16;17.90;93.80
10123;DHT22;5101;49.038;8.710;2023-07-31T00:43:41;17.90;94.30
10123;DHT22;5101;49.038;8.710;2023-07-31T00:46:07;17.90;94.30
10123;DHT22;5101;49.038;8.710;2023-07-31T00:48:33;17.90;93.90
10123;DHT22;5101;49.038;8.710;2023-07-31T00:50:59;17.80;93.50
10123;DHT22;5101;49.038;8.710;2023-07-31T00:53:26;17.80;93.40
10123;DHT22;5101;49.038;8.710;2023-07-31T00:55:52;17.80;93.20
10123;DHT22;5101;49.038;8.710;2023-07-31T00:58:18;17.70;93.00
10123;DHT22;5101;49.038;8.710;2023-07-31T01:00:43;17.70;93.00
10123;DHT22;5101;49.038;8.710;2023-07-31T01:03:09;17.70;92.90
10123;DHT22;5101;49.038;8.710;2023-07-31T01:06:44;17.70;92.70
10123;DHT22;5101;49.038;8.710;2023-07-31T01:11:29;17.70;92.60
10123;DHT22;5101;49.038;8.710;2023-07-31T01:13:55;17.70;92.90
10123;DHT22;5101;49.038;8.710;2023-07-31T01:16:21;17.70;93.10
10123;DHT22;5101;49.038;8.710;2023-07-31T01:18:47;17.70;93.10
10123;DHT22;5101;49.038;8.710;2023-07-31T01:21:37;17.70;93.10
10123;DHT22;5101;49.038;8.710;2023-07-31T01:26:58;17.70;93.10
10123;DHT22;5101;49.038;8.710;2023-07-31T01:31:56;17.70;93.10
10123;DHT22;5101;49.038;8.710;2023-07-31T01:34:25;17.60;93.00
10123;DHT22;5101;49.038;8.710;2023-07-31T01:36:51;17.60;93.00
10123;DHT22;5101;49.038;8.710;2023-07-31T01:39:17;17.60;93.10
10123;DHT22;5101;49.038;8.710;2023-07-31T01:41:45;17.60;93.20
10123;DHT22;5101;49.038;8.710;2023-07-31T01:44:11;17.60;93.20
10123;DHT22;5101;49.038;8.710;2023-07-31T01:46:36;17.60;93.20
10123;DHT22;5101;49.038;8.710;2023-07-31T01:49:02;17.60;93.10
10123;DHT22;5101;49.038;8.710;2023-07-31T01:51:28;17.50;93.00
10123;DHT22;5101;49.038;8.710;2023-07-31T01:53:53;17.50;93.00
10123;DHT22;5101;49.038;8.710;2023-07-31T01:56:19;17.50;93.00
10123;DHT22;5101;49.038;8.710;2023-07-31T01:58:44;17.60;93.00
10123;DHT22;5101;49.038;8.710;2023-07-31T02:01:10;17.60;93.00
10123;DHT22;5101;49.038;8.710;2023-07-31T02:03:35;17.60;92.90
10123;DHT22;5101;49.038;8.710;2023-07-31T02:06:01;17.60;93.10
10123;DHT22;5101;49.038;8.710;2023-07-31T02:08:26;17.60;93.20
10123;DHT22;5101;49.038;8.710;2023-07-31T02:10:52;17.70;93.10
10123;DHT22;5101;49.038;8.710;2023-07-31T02:13:17;17.70;93.10
10123;DHT22;5101;49.038;8.710;2023-07-31T02:15:43;17.70;93.10
10123;DHT22;5101;49.038;8.710;2023-07-31T02:18:08;17.60;93.00
10123;DHT22;5101;49.038;8.710;2023-07-31T02:20:34;17.60;93.00
10123;DHT22;5101;49.038;8.710;2023-07-31T02:23:00;17.70;93.00
10123;DHT22;5101;49.038;8.710;2023-07-31T02:25:26;17.70;93.00
10123;DHT22;5101;49.038;8.710;2023-07-31T02:27:52;17.70;92.80
10123;DHT22;5101;49.038;8.710;2023-07-31T02:30:17;17.70;92.70
10123;DHT22;5101;49.038;8.710;2023-07-31T02:32:43;17.70;92.60
10123;DHT22;5101;49.038;8.710;2023-07-31T02:35:08;17.70;92.80
10123;DHT22;5101;49.038;8.710;2023-07-31T02:37:34;17.70;92.80
10123;DHT22;5101;49.038;8.710;2023-07-31T02:39:59;17.60;92.70
10123;DHT22;5101;49.038;8.710;2023-07-31T02:42:25;17.60;92.60
10123;DHT22;5101;49.038;8.710;2023-07-31T02:44:50;17.60;92.50
10123;DHT22;5101;49.038;8.710;2023-07-31T02:47:21;17.60;92.40
10123;DHT22;5101;49.038;8.710;2023-07-31T02:49:47;17.60;92.40
10123;DHT22;5101;49.038;8.710;2023-07-31T02:52:12;17.60;92.40
10123;DHT22;5101;49.038;8.710;2023-07-31T02:54:37;17.60;92.70
10123;DHT22;5101;49.038;8.710;2023-07-31T02:57:03;17.60;92.70
10123;DHT22;5101;49.038;8.710;2023-07-31T02:59:29;17.60;93.00
10123;DHT22;5101;49.038;8.710;2023-07-31T03:01:54;17.70;93.20
10123;DHT22;5101;49.038;8.710;2023-07-31T03:04:20;17.70;93.30
10123;DHT22;5101;49.038;8.710;2023-07-31T03:06:45;17.70;93.20
10123;DHT22;5101;49.038;8.710;2023-07-31T03:09:11;17.60;93.30
10123;DHT22;5101;49.038;8.710;2023-07-31T03:11:36;17.60;93.60
10123;DHT22;5101;49.038;8.710;2023-07-31T03:14:02;17.60;93.60
10123;DHT22;5101;49.038;8.710;2023-07-31T03:16:27;17.60;93.50
10123;DHT22;5101;49.038;8.710;2023-07-31T03:18:54;17.50;93.40
10123;DHT22;5101;49.038;8.710;2023-07-31T03:21:19;17.50;93.70
10123;DHT22;5101;49.038;8.710;2023-07-31T03:23:45;17.50;94.00
10123;DHT22;5101;49.038;8.710;2023-07-31T03:26:10;17.50;94.10
10123;DHT22;5101;49.038;8.710;2023-07-31T03:28:36;17.50;94.30
10123;DHT22;5101;49.038;8.710;2023-07-31T03:31:01;17.50;94.50
10123;DHT22;5101;49.038;8.710;2023-07-31T03:33:27;17.50;94.50
10123;DHT22;5101;49.038;8.710;2023-07-31T03:35:53;17.50;94.60
10123;DHT22;5101;49.038;8.710;2023-07-31T03:38:19;17.40;94.70
10123;DHT22;5101;49.038;8.710;2023-07-31T03:40:44;17.40;94.80
10123;DHT22;5101;49.038;8.710;2023-07-31T03:43:11;17.40;94.70
10123;DHT22;5101;49.038;8.710;2023-07-31T03:45:36;17.40;94.70
10123;DHT22;5101;49.038;8.710;2023-07-31T03:48:03;17.40;94.90
10123;DHT22;5101;49.038;8.710;2023-07-31T03:50:28;17.40;95.00
10123;DHT22;5101;49.038;8.710;2023-07-31T03:52:54;17.40;95.50
10123;DHT22;5101;49.038;8.710;2023-07-31T03:55:19;17.30;95.40
10123;DHT22;5101;49.038;8.710;2023-07-31T03:57:45;17.30;95.40
10123;DHT22;5101;49.038;8.710;2023-07-31T04:00:10;17.30;95.40
10123;DHT22;5101;49.038;8.710;2023-07-31T04:02:36;17.20;95.30
10123;DHT22;5101;49.038;8.710;2023-07-31T04:05:01;17.20;95.10
10123;DHT22;5101;49.038;8.710;2023-07-31T04:07:27;17.20;95.10
10123;DHT22;5101;49.038;8.710;2023-07-31T04:09:53;17.20;95.20
10123;DHT22;5101;49.038;8.710;2023-07-31T04:12:18;17.20;95.10
10123;DHT22;5101;49.038;8.710;2023-07-31T04:14:43;17.20;95.20
10123;DHT22;5101;49.038;8.710;2023-07-31T04:17:09;17.10;95.60
10123;DHT22;5101;49.038;8.710;2023-07-31T04:19:34;17.10;96.10
10123;DHT22;5101;49.038;8.710;2023-07-31T04:22:00;17.10;96.40
10123;DHT22;5101;49.038;8.710;2023-07-31T04:24:25;17.10;96.40
10123;DHT22;5101;49.038;8.710;2023-07-31T04:26:51;17.10;96.40
10123;DHT22;5101;49.038;8.710;2023-07-31T04:29:17;17.10;96.50
10123;DHT22;5101;49.038;8.710;2023-07-31T04:31:43;17.20;96.40
10123;DHT22;5101;49.038;8.710;2023-07-31T04:34:08;17.20;96.50
10123;DHT22;5101;49.038;8.710;2023-07-31T04:36:34;17.10;96.10
10123;DHT22;5101;49.038;8.710;2023-07-31T04:39:00;17.10;96.00
10123;DHT22;5101;49.038;8.710;2023-07-31T04:41:26;17.10;95.90
10123;DHT22;5101;49.038;8.710;2023-07-31T04:43:51;17.20;96.30
10123;DHT22;5101;49.038;8.710;2023-07-31T04:46:17;17.10;96.20
10123;DHT22;5101;49.038;8.710;2023-07-31T04:48:42;17.10;96.50
10123;DHT22;5101;49.038;8.710;2023-07-31T04:51:08;17.20;96.40
10123;DHT22;5101;49.038;8.710;2023-07-31T04:53:36;17.20;96.30
10123;DHT22;5101;49.038;8.710;2023-07-31T04:56:02;17.20;96.70
10123;DHT22;5101;49.038;8.710;2023-07-31T04:58:28;17.20;97.00
10123;DHT22;5101;49.038;8.710;2023-07-31T05:00:53;17.20;97.00
10123;DHT22;5101;49.038;8.710;2023-07-31T05:03:19;17.20;97.00
10123;DHT22;5101;49.038;8.710;2023-07-31T05:05:44;17.20;96.80
10123;DHT22;5101;49.038;8.710;2023-07-31T05:08:10;17.30;97.10
10123;DHT22;5101;49.038;8.710;2023-07-31T05:10:35;17.30;97.40
10123;DHT22;5101;49.038;8.710;2023-07-31T05:13:01;17.30;97.30
10123;DHT22;5101;49.038;8.710;2023-07-31T05:15:26;17.30;97.30
10123;DHT22;5101;49.038;8.710;2023-07-31T05:17:52;17.40;97.70
10123;DHT22;5101;49.038;8.710;2023-07-31T05:20:17;17.40;98.00
10123;DHT22;5101;49.038;8.710;2023-07-31T05:22:43;17.50;98.70
10123;DHT22;5101;49.038;8.710;2023-07-31T05:25:08;17.50;99.00
10123;DHT22;5101;49.038;8.710;2023-07-31T05:27:34;17.60;99.30
10123;DHT22;5101;49.038;8.710;2023-07-31T05:29:59;17.50;99.40
10123;DHT22;5101;49.038;8.710;2023-07-31T05:32:25;17.60;99.60
10123;DHT22;5101;49.038;8.710;2023-07-31T05:34:51;17.70;99.30
10123;DHT22;5101;49.038;8.710;2023-07-31T05:37:17;17.70;98.70
10123;DHT22;5101;49.038;8.710;2023-07-31T05:39:43;17.70;98.90
10123;DHT22;5101;49.038;8.710;2023-07-31T05:42:08;17.80;99.20
10123;DHT22;5101;49.038;8.710;2023-07-31T05:44:34;17.90;99.40
10123;DHT22;5101;49.038;8.710;2023-07-31T05:46:59;17.90;98.80
10123;DHT22;5101;49.038;8.710;2023-07-31T05:49:25;18.00;97.90
10123;DHT22;5101;49.038;8.710;2023-07-31T05:51:51;18.00;97.80
10123;DHT22;5101;49.038;8.710;2023-07-31T05:54:16;18.10;98.20
10123;DHT22;5101;49.038;8.710;2023-07-31T05:56:42;18.20;98.50
10123;DHT22;5101;49.038;8.710;2023-07-31T05:59:09;18.30;98.60
10123;DHT22;5101;49.038;8.710;2023-07-31T06:01:35;18.30;98.80
10123;DHT22;5101;49.038;8.710;2023-07-31T06:04:00;18.40;98.70
10123;DHT22;5101;49.038;8.710;2023-07-31T06:06:27;18.50;98.20
10123;DHT22;5101;49.038;8.710;2023-07-31T06:08:52;18.50;97.80
10123;DHT22;5101;49.038;8.710;2023-07-31T06:11:19;18.60;97.80
10123;DHT22;5101;49.038;8.710;2023-07-31T06:13:45;18.70;97.80
10123;DHT22;5101;49.038;8.710;2023-07-31T06:16:12;18.80;98.10
10123;DHT22;5101;49.038;8.710;2023-07-31T06:18:37;18.80;98.40
10123;DHT22;5101;49.038;8.710;2023-07-31T06:21:03;18.90;98.20
10123;DHT22;5101;49.038;8.710;2023-07-31T06:23:28;18.90;97.60
10123;DHT22;5101;49.038;8.710;2023-07-31T06:25:54;19.00;96.80
10123;DHT22;5101;49.038;8.710;2023-07-31T06:28:19;19.10;96.70
10123;DHT22;5101;49.038;8.710;2023-07-31T06:30:45;19.10;96.80
10123;DHT22;5101;49.038;8.710;2023-07-31T06:33:10;19.30;97.10
10123;DHT22;5101;49.038;8.710;2023-07-31T06:35:36;19.30;96.90
10123;DHT22;5101;49.038;8.710;2023-07-31T06:38:01;19.40;96.70
10123;DHT22;5101;49.038;8.710;2023-07-31T06:40:28;19.50;96.80
10123;DHT22;5101;49.038;8.710;2023-07-31T06:42:53;19.60;96.60
10123;DHT22;5101;49.038;8.710;2023-07-31T06:45:19;19.70;95.80
10123;DHT22;5101;49.038;8.710;2023-07-31T06:47:46;19.80;95.10
10123;DHT22;5101;49.038;8.710;2023-07-31T06:50:11;19.80;94.20
10123;DHT22;5101;49.038;8.710;2023-07-31T06:52:37;20.00;93.90
10123;DHT22;5101;49.038;8.710;2023-07-31T06:55:14;20.10;93.30
10123;DHT22;5101;49.038;8.710;2023-07-31T06:57:40;20.20;93.00
10123;DHT22;5101;49.038;8.710;2023-07-31T07:00:07;20.40;93.40
10123;DHT22;5101;49.038;8.710;2023-07-31T07:02:32;20.50;93.20
10123;DHT22;5101;49.038;8.710;2023-07-31T07:04:58;20.60;92.90
10123;DHT22;5101;49.038;8.710;2023-07-31T07:07:23;20.80;92.20
10123;DHT22;5101;49.038;8.710;2023-07-31T07:09:49;20.90;92.30
10123;DHT22;5101;49.038;8.710;2023-07-31T07:12:14;21.00;92.50
10123;DHT22;5101;49.038;8.710;2023-07-31T07:14:40;21.10;92.20
10123;DHT22;5101;49.038;8.710;2023-07-31T07:17:05;21.20;91.00
10123;DHT22;5101;49.038;8.710;2023-07-31T07:19:31;21.30;90.30
10123;DHT22;5101;49.038;8.710;2023-07-31T07:21:56;21.50;89.90
10123;DHT22;5101;49.038;8.710;2023-07-31T07:24:22;21.50;88.70
10123;DHT22;5101;49.038;8.710;2023-07-31T07:26:47;21.50;87.70
10123;DHT22;5101;49.038;8.710;2023-07-31T07:29:13;21.70;86.90
10123;DHT22;5101;49.038;8.710;2023-07-31T07:31:38;21.80;86.00
10123;DHT22;5101;49.038;8.710;2023-07-31T07:34:04;21.80;84.60
10123;DHT22;5101;49.038;8.710;2023-07-31T07:36:29;22.00;84.20
10123;DHT22;5101;49.038;8.710;2023-07-31T07:38:55;22.00;83.00
10123;DHT22;5101;49.038;8.710;2023-07-31T07:41:20;22.10;82.20
10123;DHT22;5101;49.038;8.710;2023-07-31T07:43:46;22.20;81.50
10123;DHT22;5101;49.038;8.710;2023-07-31T07:46:11;22.30;81.10
10123;DHT22;5101;49.038;8.710;2023-07-31T07:48:37;22.30;80.50
10123;DHT22;5101;49.038;8.710;2023-07-31T07:51:02;22.50;80.30
10123;DHT22;5101;49.038;8.710;2023-07-31T07:53:28;22.50;80.00
10123;DHT22;5101;49.038;8.710;2023-07-31T07:55:53;22.60;80.30
10123;DHT22;5101;49.038;8.710;2023-07-31T07:58:19;22.70;79.70
10123;DHT22;5101;49.038;8.710;2023-07-31T08:00:51;22.90;79.10
10123;DHT22;5101;49.038;8.710;2023-07-31T08:03:16;22.90;79.00
10123;DHT22;5101;49.038;8.710;2023-07-31T08:05:42;23.10;79.80
10123;DHT22;5101;49.038;8.710;2023-07-31T08:08:08;23.10;79.80
10123;DHT22;5101;49.038;8.710;2023-07-31T08:10:33;23.20;78.40
10123;DHT22;5101;49.038;8.710;2023-07-31T08:12:59;23.30;77.30
10123;DHT22;5101;49.038;8.710;2023-07-31T08:15:24;23.30;77.50
10123;DHT22;5101;49.038;8.710;2023-07-31T08:17:50;23.40;77.40
10123;DHT22;5101;49.038;8.710;2023-07-31T08:20:15;23.40;78.10
10123;DHT22;5101;49.038;8.710;2023-07-31T08:22:41;23.30;76.90
10123;DHT22;5101;49.038;8.710;2023-07-31T08:25:06;23.30;76.90
10123;DHT22;5101;49.038;8.710;2023-07-31T08:27:32;23.40;75.90
10123;DHT22;5101;49.038;8.710;2023-07-31T08:29:58;23.40;75.70
10123;DHT22;5101;49.038;8.710;2023-07-31T08:32:23;23.40;75.40
10123;DHT22;5101;49.038;8.710;2023-07-31T08:34:48;23.30;75.00
10123;DHT22;5101;49.038;8.710;2023-07-31T08:37:14;23.30;74.70
10123;DHT22;5101;49.038;8.710;2023-07-31T08:39:40;23.40;75.50
10123;DHT22;5101;49.038;8.710;2023-07-31T08:42:08;23.50;74.90
10123;DHT22;5101;49.038;8.710;2023-07-31T08:44:34;23.60;74.80
10123;DHT22;5101;49.038;8.710;2023-07-31T08:47:01;23.60;74.50
10123;DHT22;5101;49.038;8.710;2023-07-31T08:49:27;23.60;74.20
10123;DHT22;5101;49.038;8.710;2023-07-31T08:51:55;23.60;73.50
10123;DHT22;5101;49.038;8.710;2023-07-31T08:54:20;23.60;72.00
10123;DHT22;5101;49.038;8.710;2023-07-31T08:56:46;23.60;71.80
10123;DHT22;5101;49.038;8.710;2023-07-31T08:59:13;23.60;72.40
10123;DHT22;5101;49.038;8.710;2023-07-31T09:01:44;23.80;72.10
10123;DHT22;5101;49.038;8.710;2023-07-31T09:04:14;23.80;71.30
10123;DHT22;5101;49.038;8.710;2023-07-31T09:06:41;24.00;71.90
10123;DHT22;5101;49.038;8.710;2023-07-31T09:09:07;24.10;71.40
10123;DHT22;5101;49.038;8.710;2023-07-31T09:11:33;24.30;71.30
10123;DHT22;5101;49.038;8.710;2023-07-31T09:13:58;24.30;70.00
10123;DHT22;5101;49.038;8.710;2023-07-31T09:16:28;24.30;68.80
10123;DHT22;5101;49.038;8.710;2023-07-31T09:18:56;24.50;68.60
10123;DHT22;5101;49.038;8.710;2023-07-31T09:21:23;24.70;69.10
10123;DHT22;5101;49.038;8.710;2023-07-31T09:23:48;24.90;68.00
10123;DHT22;5101;49.038;8.710;2023-07-31T09:26:36;25.10;67.00
10123;DHT22;5101;49.038;8.710;2023-07-31T09:29:05;25.40;65.20
10123;DHT22;5101;49.038;8.710;2023-07-31T09:31:41;25.70;64.80
10123;DHT22;5101;49.038;8.710;2023-07-31T09:34:07;26.00;61.00
10123;DHT22;5101;49.038;8.710;2023-07-31T09:36:32;26.20;60.90
10123;DHT22;5101;49.038;8.710;2023-07-31T09:39:04;26.30;59.20
10123;DHT22;5101;49.038;8.710;2023-07-31T09:41:31;26.50;58.40
10123;DHT22;5101;49.038;8.710;2023-07-31T09:43:56;26.80;59.80
10123;DHT22;5101;49.038;8.710;2023-07-31T09:46:22;27.10;58.00
10123;DHT22;5101;49.038;8.710;2023-07-31T09:48:48;27.20;56.10
10123;DHT22;5101;49.038;8.710;2023-07-31T09:51:13;27.40;55.30
10123;DHT22;5101;49.038;8.710;2023-07-31T09:53:39;27.60;54.50
10123;DHT22;5101;49.038;8.710;2023-07-31T09:56:05;27.50;53.30
10123;DHT22;5101;49.038;8.710;2023-07-31T09:58:33;27.40;50.70
10123;DHT22;5101;49.038;8.710;2023-07-31T10:01:00;27.40;49.90
10123;DHT22;5101;49.038;8.710;2023-07-31T10:03:27;27.30;48.70
10123;DHT22;5101;49.038;8.710;2023-07-31T10:05:57;27.20;49.00
10123;DHT22;5101;49.038;8.710;2023-07-31T10:08:27;27.20;48.80
10123;DHT22;5101;49.038;8.710;2023-07-31T10:10:59;27.20;48.80
10123;DHT22;5101;49.038;8.710;2023-07-31T10:13:25;27.20;49.00
10123;DHT22;5101;49.038;8.710;2023-07-31T10:15:53;27.20;48.90
10123;DHT22;5101;49.038;8.710;2023-07-31T10:18:19;27.20;50.50
10123;DHT22;5101;49.038;8.710;2023-07-31T10:20:46;27.30;50.30
10123;DHT22;5101;49.038;8.710;2023-07-31T10:23:12;27.20;49.30
10123;DHT22;5101;49.038;8.710;2023-07-31T10:25:39;27.20;49.10
10123;DHT22;5101;49.038;8.710;2023-07-31T10:28:05;27.10;48.50
10123;DHT22;5101;49.038;8.710;2023-07-31T10:30:33;26.90;48.70
10123;DHT22;5101;49.038;8.710;2023-07-31T10:32:59;26.70;51.40
10123;DHT22;5101;49.038;8.710;2023-07-31T10:35:25;26.50;51.80
10123;DHT22;5101;49.038;8.710;2023-07-31T10:37:51;26.40;52.10
10123;DHT22;5101;49.038;8.710;2023-07-31T10:40:25;26.10;52.40
10123;DHT22;5101;49.038;8.710;2023-07-31T10:42:53;25.90;52.70
10123;DHT22;5101;49.038;8.710;2023-07-31T10:45:30;25.90;53.30
10123;DHT22;5101;49.038;8.710;2023-07-31T10:48:22;25.90;55.40
10123;DHT22;5101;49.038;8.710;2023-07-31T10:50:55;25.80;57.00
10123;DHT22;5101;49.038;8.710;2023-07-31T10:53:31;25.70;57.00
10123;DHT22;5101;49.038;8.710;2023-07-31T10:56:08;25.70;55.70
10123;DHT22;5101;49.038;8.710;2023-07-31T10:58:34;25.80;56.80
10123;DHT22;5101;49.038;8.710;2023-07-31T11:01:02;25.70;57.40
10123;DHT22;5101;49.038;8.710;2023-07-31T11:03:48;25.80;57.00
10123;DHT22;5101;49.038;8.710;2023-07-31T11:06:17;25.90;57.30
10123;DHT22;5101;49.038;8.710;2023-07-31T11:08:47;25.90;57.90
10123;DHT22;5101;49.038;8.710;2023-07-31T11:11:15;25.90;57.80
10123;DHT22;5101;49.038;8.710;2023-07-31T11:16:10;25.80;57.00
10123;DHT22;5101;49.038;8.710;2023-07-31T11:18:39;25.80;57.00
10123;DHT22;5101;49.038;8.710;2023-07-31T11:21:05;25.80;57.90
10123;DHT22;5101;49.038;8.710;2023-07-31T11:23:31;25.90;57.70
10123;DHT22;5101;49.038;8.710;2023-07-31T11:26:00;25.90;57.10
10123;DHT22;5101;49.038;8.710;2023-07-31T11:28:26;26.00;56.40
10123;DHT22;5101;49.038;8.710;2023-07-31T11:30:51;26.10;56.50
10123;DHT22;5101;49.038;8.710;2023-07-31T11:33:17;26.10;57.50
10123;DHT22;5101;49.038;8.710;2023-07-31T11:35:47;26.20;57.30
10123;DHT22;5101;49.038;8.710;2023-07-31T11:38:25;26.20;57.30
10123;DHT22;5101;49.038;8.710;2023-07-31T11:40:52;26.20;56.80
10123;DHT22;5101;49.038;8.710;2023-07-31T11:43:18;26.30;57.40
10123;DHT22;5101;49.038;8.710;2023-07-31T11:45:48;26.20;58.00
10123;DHT22;5101;49.038;8.710;2023-07-31T11:48:28;26.20;57.30
10123;DHT22;5101;49.038;8.710;2023-07-31T11:50:57;26.30;55.10
10123;DHT22;5101;49.038;8.710;2023-07-31T11:55:59;26.00;55.60
10123;DHT22;5101;49.038;8.710;2023-07-31T11:58:26;25.90;56.20
10123;DHT22;5101;49.038;8.710;2023-07-31T12:00:52;25.90;56.90
10123;DHT22;5101;49.038;8.710;2023-07-31T12:03:18;25.90;58.30
10123;DHT22;5101;49.038;8.710;2023-07-31T12:05:44;25.80;57.70
10123;DHT22;5101;49.038;8.710;2023-07-31T12:08:11;25.70;57.90
10123;DHT22;5101;49.038;8.710;2023-07-31T12:10:37;25.60;57.30
10123;DHT22;5101;49.038;8.710;2023-07-31T12:13:11;25.60;58.70
10123;DHT22;5101;49.038;8.710;2023-07-31T12:15:41;25.60;58.20
10123;DHT22;5101;49.038;8.710;2023-07-31T12:18:12;25.70;57.00
10123;DHT22;5101;49.038;8.710;2023-07-31T12:20:43;25.90;58.60
10123;DHT22;5101;49.038;8.710;2023-07-31T12:23:17;26.00;58.90
10123;DHT22;5101;49.038;8.710;2023-07-31T12:25:43;26.20;58.50
10123;DHT22;5101;49.038;8.710;2023-07-31T12:28:09;26.30;59.20
10123;DHT22;5101;49.038;8.710;2023-07-31T12:30:40;26.50;57.60
10123;DHT22;5101;49.038;8.710;2023-07-31T12:33:15;26.60;56.00
10123;DHT22;5101;49.038;8.710;2023-07-31T12:35:43;26.70;55.60
10123;DHT22;5101;49.038;8.710;2023-07-31T12:38:08;26.70;56.10
10123;DHT22;5101;49.038;8.710;2023-07-31T12:40:37;26.70;55.50
10123;DHT22;5101;49.038;8.710;2023-07-31T12:43:02;26.70;55.90
10123;DHT22;5101;49.038;8.710;2023-07-31T12:45:29;26.70;54.50
10123;DHT22;5101;49.038;8.710;2023-07-31T12:47:55;26.70;54.30
10123;DHT22;5101;49.038;8.710;2023-07-31T12:50:20;26.70;54.00
10123;DHT22;5101;49.038;8.710;2023-07-31T12:52:46;26.80;55.90
10123;DHT22;5101;49.038;8.710;2023-07-31T12:55:11;26.80;54.60
10123;DHT22;5101;49.038;8.710;2023-07-31T12:57:37;26.70;54.80
10123;DHT22;5101;49.038;8.710;2023-07-31T13:00:03;26.70;55.00
10123;DHT22;5101;49.038;8.710;2023-07-31T13:02:29;26.60;55.80
10123;DHT22;5101;49.038;8.710;2023-07-31T13:04:54;26.50;55.80
10123;DHT22;5101;49.038;8.710;2023-07-31T13:07:22;26.40;55.40
10123;DHT22;5101;49.038;8.710;2023-07-31T13:09:48;26.50;56.60
10123;DHT22;5101;49.038;8.710;2023-07-31T13:12:13;26.50;55.80
10123;DHT22;5101;49.038;8.710;2023-07-31T13:14:39;26.60;55.20
10123;DHT22;5101;49.038;8.710;2023-07-31T13:17:04;26.70;55.00
10123;DHT22;5101;49.038;8.710;2023-07-31T13:19:30;26.70;54.40
10123;DHT22;5101;49.038;8.710;2023-07-31T13:21:55;26.70;55.60
10123;DHT22;5101;49.038;8.710;2023-07-31T13:24:20;26.60;55.20
10123;DHT22;5101;49.038;8.710;2023-07-31T13:26:46;26.60;54.80
10123;DHT22;5101;49.038;8.710;2023-07-31T13:29:11;26.60;56.40
10123;DHT22;5101;49.038;8.710;2023-07-31T13:31:37;26.50;57.60
10123;DHT22;5101;49.038;8.710;2023-07-31T13:34:02;26.50;56.20
10123;DHT22;5101;49.038;8.710;2023-07-31T13:36:28;26.60;56.10
10123;DHT22;5101;49.038;8.710;2023-07-31T13:38:53;26.60;56.00
10123;DHT22;5101;49.038;8.710;2023-07-31T13:41:19;26.50;57.10
10123;DHT22;5101;49.038;8.710;2023-07-31T13:43:44;26.40;57.50
10123;DHT22;5101;49.038;8.710;2023-07-31T13:46:10;26.30;59.20
10123;DHT22;5101;49.038;8.710;2023-07-31T13:48:36;26.30;59.30
10123;DHT22;5101;49.038;8.710;2023-07-31T13:51:02;26.30;59.50
10123;DHT22;5101;49.038;8.710;2023-07-31T13:53:27;26.30;58.10
10123;DHT22;5101;49.038;8.710;2023-07-31T13:55:53;26.20;58.00
10123;DHT22;5101;49.038;8.710;2023-07-31T13:58:20;26.20;57.60
10123;DHT22;5101;49.038;8.710;2023-07-31T14:00:45;26.20;58.20
10123;DHT22;5101;49.038;8.710;2023-07-31T14:03:11;26.20;58.80
10123;DHT22;5101;49.038;8.710;2023-07-31T14:05:36;26.10;59.30
10123;DHT22;5101;49.038;8.710;2023-07-31T14:08:02;26.10;59.80
10123;DHT22;5101;49.038;8.710;2023-07-31T14:10:28;26.10;60.00
10123;DHT22;5101;49.038;8.710;2023-07-31T14:12:53;26.10;60.60
10123;DHT22;5101;49.038;8.710;2023-07-31T14:15:18;26.10;61.30
10123;DHT22;5101;49.038;8.710;2023-07-31T14:17:44;26.00;62.00
10123;DHT22;5101;49.038;8.710;2023-07-31T14:20:10;26.00;61.40
10123;DHT22;5101;49.038;8.710;2023-07-31T14:22:36;26.00;60.60
10123;DHT22;5101;49.038;8.710;2023-07-31T14:25:03;26.00;59.60
10123;DHT22;5101;49.038;8.710;2023-07-31T14:27:28;25.90;59.70
10123;DHT22;5101;49.038;8.710;2023-07-31T14:29:54;25.80;60.60
10123;DHT22;5101;49.038;8.710;2023-07-31T14:32:21;25.70;61.40
10123;DHT22;5101;49.038;8.710;2023-07-31T14:34:47;25.60;61.30
10123;DHT22;5101;49.038;8.710;2023-07-31T14:37:12;25.40;61.30
10123;DHT22;5101;49.038;8.710;2023-07-31T14:39:37;25.40;61.50
10123;DHT22;5101;49.038;8.710;2023-07-31T14:42:03;25.30;61.50
10123;DHT22;5101;49.038;8.710;2023-07-31T14:44:29;25.30;62.10
10123;DHT22;5101;49.038;8.710;2023-07-31T14:46:54;25.20;62.50
10123;DHT22;5101;49.038;8.710;2023-07-31T14:49:20;25.20;62.40
10123;DHT22;5101;49.038;8.710;2023-07-31T14:51:45;25.20;62.10
10123;DHT22;5101;49.038;8.710;2023-07-31T14:54:11;25.10;62.70
10123;DHT22;5101;49.038;8.710;2023-07-31T14:56:36;25.00;63.40
10123;DHT22;5101;49.038;8.710;2023-07-31T14:59:02;25.10;63.90
10123;DHT22;5101;49.038;8.710;2023-07-31T15:01:27;24.90;64.40
10123;DHT22;5101;49.038;8.710;2023-07-31T15:03:53;25.00;64.70
10123;DHT22;5101;49.038;8.710;2023-07-31T15:06:18;25.00;64.80
10123;DHT22;5101;49.038;8.710;2023-07-31T15:08:44;25.10;64.40
10123;DHT22;5101;49.038;8.710;2023-07-31T15:11:10;25.10;63.60
10123;DHT22;5101;49.038;8.710;2023-07-31T15:13:35;25.10;64.10
10123;DHT22;5101;49.038;8.710;2023-07-31T15:16:01;25.20;64.20
10123;DHT22;5101;49.038;8.710;2023-07-31T15:18:26;25.20;65.20
10123;DHT22;5101;49.038;8.710;2023-07-31T15:20:53;25.20;67.40
10123;DHT22;5101;49.038;8.710;2023-07-31T15:23:18;25.10;66.20
10123;DHT22;5101;49.038;8.710;2023-07-31T15:25:44;25.10;66.10
10123;DHT22;5101;49.038;8.710;2023-07-31T15:28:09;25.10;65.80
10123;DHT22;5101;49.038;8.710;2023-07-31T15:30:36;25.10;65.70
10123;DHT22;5101;49.038;8.710;2023-07-31T15:33:02;25.20;65.00
10123;DHT22;5101;49.038;8.710;2023-07-31T15:35:28;25.20;66.10
10123;DHT22;5101;49.038;8.710;2023-07-31T15:37:53;25.20;66.40
10123;DHT22;5101;49.038;8.710;2023-07-31T15:40:19;25.20;67.00
10123;DHT22;5101;49.038;8.710;2023-07-31T15:42:45;25.20;67.20
10123;DHT22;5101;49.038;8.710;2023-07-31T15:45:10;25.30;68.00
10123;DHT22;5101;49.038;8.710;2023-07-31T15:47:36;25.30;68.50
10123;DHT22;5101;49.038;8.710;2023-07-31T15:50:02;25.30;68.10
10123;DHT22;5101;49.038;8.710;2023-07-31T15:52:27;25.30;67.80